createdAt,value
2019-06-07T00:01:09.645Z,100476.44
2019-06-07T00:03:40.324Z,100478.77
2019-06-07T00:06:15.098Z,100480.52
2019-06-07T00:08:43.543Z,100494.50
2019-06-07T00:11:17.783Z,100489.31
2019-06-07T00:13:46.078Z,100488.09
2019-06-07T00:16:20.847Z,100495.10
2019-06-07T00:18:48.599Z,100492.02
2019-06-07T00:21:20.469Z,100485.00
2019-06-07T00:23:51.200Z,100486.40
2019-06-07T00:26:21.691Z,100483.84
2019-06-07T00:28:52.071Z,100487.89
2019-06-07T00:31:24.666Z,100497.98
2019-06-07T00:33:54.569Z,100496.66
2019-06-07T00:36:24.980Z,100507.77
2019-06-07T00:38:55.305Z,100511.66
2019-06-07T00:41:25.722Z,100511.64
2019-06-07T00:43:56.125Z,100513.69
2019-06-07T00:46:26.620Z,100508.80
2019-06-07T00:48:56.974Z,100514.39
2019-06-07T00:51:27.367Z,100519.38
2019-06-07T00:53:57.837Z,100521.94
2019-06-07T00:56:28.405Z,100522.02
2019-06-07T00:59:10.678Z,100524.71
2019-06-07T01:01:30.861Z,100524.71
2019-06-07T01:04:01.228Z,100516.83
2019-06-07T01:06:31.624Z,100527.83
2019-06-07T01:09:01.975Z,100527.27
2019-06-07T01:11:32.457Z,100527.27
2019-06-07T01:14:02.806Z,100521.28
2019-06-07T01:16:55.329Z,100515.15
2019-06-07T01:19:05.335Z,100515.15
2019-06-07T01:21:35.815Z,100513.12
2019-06-07T01:24:11.991Z,100515.61
2019-06-07T01:26:38.324Z,100516.44
2019-06-07T01:29:09.354Z,100517.18
2019-06-07T01:31:39.861Z,100515.72
2019-06-07T01:34:10.224Z,100515.72
2019-06-07T01:36:40.601Z,100513.31
2019-06-07T01:39:10.948Z,100519.97
2019-06-07T01:41:41.363Z,100529.05
2019-06-07T01:44:11.790Z,100536.84
2019-06-07T01:46:42.186Z,100535.50
2019-06-07T01:49:12.627Z,100529.08
2019-06-07T01:51:43.117Z,100524.11
2019-06-07T01:54:49.472Z,100527.99
2019-06-07T01:56:45.635Z,100531.37
2019-06-07T01:59:17.664Z,100525.66
2019-06-07T02:01:48.359Z,100526.60
2019-06-07T02:04:21.575Z,100525.34
2019-06-07T02:06:50.897Z,100527.63
2019-06-07T02:09:23.364Z,100534.34
2019-06-07T02:11:53.447Z,100527.63
2019-06-07T02:14:27.353Z,100524.37
2019-06-07T02:16:55.984Z,100528.12
2019-06-07T02:19:27.470Z,100527.92
2019-06-07T02:21:58.514Z,100528.30
2019-06-07T02:24:32.388Z,100532.49
2019-06-07T02:27:01.032Z,100532.00
2019-06-07T02:29:33.426Z,100532.12
2019-06-07T02:32:04.762Z,100529.97
2019-06-07T02:34:38.562Z,100540.65
2019-06-07T02:37:07.226Z,100544.21
2019-06-07T02:39:40.829Z,100546.25
2019-06-07T02:42:09.699Z,100542.06
2019-06-07T02:44:40.538Z,100545.48
2019-06-07T02:47:11.160Z,100542.22
2019-06-07T02:49:42.341Z,100546.64
2019-06-07T02:52:13.686Z,100540.39
2019-06-07T02:54:44.060Z,100535.45
2019-06-07T02:57:14.646Z,100535.39
2019-06-07T03:00:07.109Z,100533.72
2019-06-07T03:02:17.202Z,100541.05
2019-06-07T03:04:47.650Z,100540.94
2019-06-07T03:07:18.058Z,100542.82
2019-06-07T03:09:48.507Z,100536.92
2019-06-07T03:12:19.161Z,100538.95
2019-06-07T03:14:49.519Z,100532.70
2019-06-07T03:17:22.636Z,100534.14
2019-06-07T03:20:01.171Z,100534.34
2019-06-07T03:22:35.084Z,100544.75
2019-06-07T03:25:05.886Z,100544.56
2019-06-07T03:27:48.295Z,100544.56
2019-06-07T03:30:35.889Z,100541.48
2019-06-07T03:32:47.182Z,100547.19
2019-06-07T03:35:13.924Z,100543.82
2019-06-07T03:37:44.405Z,100554.88
2019-06-07T03:40:14.762Z,100551.24
2019-06-07T03:42:45.161Z,100552.98
2019-06-07T03:45:15.601Z,100552.98
2019-06-07T03:47:46.036Z,100563.20
2019-06-07T03:50:16.466Z,100558.97
2019-06-07T03:52:46.839Z,100558.97
2019-06-07T03:55:17.703Z,100557.42
2019-06-07T03:58:30.143Z,100564.55
2019-06-07T04:00:20.170Z,100576.68
2019-06-07T04:02:50.691Z,100576.68
2019-06-07T04:05:21.125Z,100585.78
2019-06-07T04:07:51.548Z,100585.78
2019-06-07T04:10:45.380Z,100585.39
2019-06-07T04:12:54.393Z,100588.31
2019-06-07T04:15:24.968Z,100586.28
2019-06-07T04:18:01.728Z,100583.38
2019-06-07T04:20:29.472Z,100585.10
2019-06-07T04:23:00.356Z,100582.33
2019-06-07T04:25:33.871Z,100579.44
2019-06-07T04:28:03.123Z,100582.13
2019-06-07T04:30:41.970Z,100588.46
2019-06-07T04:33:13.690Z,100593.28
2019-06-07T04:35:45.247Z,100600.36
2019-06-07T04:38:15.955Z,100602.52
2019-06-07T04:40:47.124Z,100603.14
2019-06-07T04:43:17.771Z,100590.42
2019-06-07T04:45:51.445Z,100591.75
2019-06-07T04:48:22.307Z,100595.83
2019-06-07T04:50:52.658Z,100595.39
2019-06-07T04:53:23.136Z,100589.67
2019-06-07T04:55:53.666Z,100593.52
2019-06-07T04:58:24.083Z,100593.42
2019-06-07T05:01:02.589Z,100588.59
2019-06-07T05:03:26.715Z,100587.95
2019-06-07T05:05:57.080Z,100588.23
2019-06-07T05:08:29.983Z,100596.34
2019-06-07T05:10:59.558Z,100598.42
2019-06-07T05:13:31.419Z,100603.47
2019-06-07T05:16:02.013Z,100603.25
2019-06-07T05:18:33.679Z,100603.99
2019-06-07T05:21:04.553Z,100606.28
2019-06-07T05:24:05.922Z,100605.61
2019-06-07T05:26:07.107Z,100594.88
2019-06-07T05:28:40.626Z,100593.61
2019-06-07T05:31:09.917Z,100594.61
2019-06-07T05:33:41.253Z,100600.08
2019-06-07T05:36:13.182Z,100601.62
2019-06-07T05:38:44.903Z,100604.13
2019-06-07T05:41:16.207Z,100605.92
2019-06-07T05:44:00.278Z,100604.22
2019-06-07T05:46:21.344Z,100613.77
2019-06-07T05:48:51.780Z,100609.96
2019-06-07T05:51:22.276Z,100611.23
2019-06-07T05:53:52.772Z,100606.67
2019-06-07T05:56:23.172Z,100606.80
2019-06-07T05:58:53.570Z,100602.39
2019-06-07T06:01:43.165Z,100605.95
2019-06-07T06:03:56.176Z,100604.13
2019-06-07T06:06:26.624Z,100599.19
2019-06-07T06:09:12.997Z,100603.66
2019-06-07T06:11:43.290Z,100599.57
2019-06-07T06:14:07.299Z,100602.77
2019-06-07T06:16:34.600Z,100604.72
2019-06-07T06:19:05.152Z,100604.20
2019-06-07T06:21:36.185Z,100614.27
2019-06-07T06:24:06.724Z,100616.05
2019-06-07T06:26:45.446Z,100615.73
2019-06-07T06:29:09.199Z,100606.09
2019-06-07T06:31:49.214Z,100613.20
2019-06-07T06:34:11.841Z,100605.25
2019-06-07T06:36:44.604Z,100603.33
2019-06-07T06:39:14.484Z,100604.83
2019-06-07T06:41:57.514Z,100603.21
2019-06-07T06:44:17.095Z,100599.03
2019-06-07T06:46:57.051Z,100591.93
2019-06-07T06:49:19.939Z,100597.59
2019-06-07T06:51:53.443Z,100605.02
2019-06-07T06:54:40.105Z,100604.71
2019-06-07T06:57:17.162Z,100601.23
2019-06-07T06:59:38.837Z,100602.79
2019-06-07T07:01:59.004Z,100602.56
2019-06-07T07:04:29.576Z,100602.16
2019-06-07T07:07:00.024Z,100600.89
2019-06-07T07:09:30.655Z,100599.45
2019-06-07T07:12:12.230Z,100595.80
2019-06-07T07:14:33.500Z,100597.48
2019-06-07T07:17:04.481Z,100596.53
2019-06-07T07:19:34.922Z,100588.20
2019-06-07T07:22:05.391Z,100594.22
2019-06-07T07:24:36.010Z,100591.80
2019-06-07T07:27:06.537Z,100594.01
2019-06-07T07:29:38.039Z,100591.58
2019-06-07T07:32:09.072Z,100593.70
2019-06-07T07:34:41.255Z,100598.59
2019-06-07T07:37:11.717Z,100596.66
2019-06-07T07:39:45.252Z,100600.57
2019-06-07T07:42:21.117Z,100602.92
2019-06-07T07:44:48.723Z,100593.66
2019-06-07T07:47:18.848Z,100599.81
2019-06-07T07:49:52.998Z,100586.67
2019-06-07T07:52:21.975Z,100591.67
2019-06-07T07:54:56.270Z,100594.85
2019-06-07T07:57:24.517Z,100597.02
2019-06-07T08:00:25.290Z,100603.41
2019-06-07T08:02:26.984Z,100604.20
2019-06-07T08:07:30.243Z,100599.91
2019-06-07T08:10:03.811Z,100603.91
2019-06-07T08:12:55.623Z,100602.77
2019-06-07T08:15:08.405Z,100610.59
2019-06-07T08:17:38.761Z,100611.06
2019-06-07T08:20:11.090Z,100615.60
2019-06-07T08:22:41.564Z,100611.14
2019-06-07T08:25:13.519Z,100616.06
2019-06-07T08:27:43.885Z,100616.93
2019-06-07T08:30:47.345Z,100617.01
2019-06-07T08:32:54.604Z,100620.28
2019-06-07T08:36:02.935Z,100626.55
2019-06-07T08:38:25.307Z,100622.70
2019-06-07T08:40:26.653Z,100632.56
2019-06-07T08:43:15.073Z,100637.03
2019-06-07T08:45:29.508Z,100641.95
2019-06-07T08:48:05.392Z,100644.08
2019-06-07T08:50:32.439Z,100644.31
2019-06-07T08:53:11.460Z,100648.72
2019-06-07T08:55:35.000Z,100642.13
2019-06-07T08:58:08.621Z,100642.97
2019-06-07T09:00:46.958Z,100641.84
2019-06-07T09:03:09.758Z,100645.30
2019-06-07T09:05:40.150Z,100644.16
2019-06-07T09:08:29.258Z,100641.63
2019-06-07T09:10:42.578Z,100643.50
2019-06-07T09:13:13.069Z,100640.95
2019-06-07T09:15:43.540Z,100639.88
2019-06-07T09:20:49.052Z,100643.05
2019-06-07T09:23:19.486Z,100643.38
2019-06-07T09:26:02.584Z,100641.42
2019-06-07T09:28:21.986Z,100637.21
2019-06-07T09:30:52.368Z,100647.97
2019-06-07T09:33:22.790Z,100636.98
2019-06-07T09:35:53.244Z,100645.44
2019-06-07T09:38:26.106Z,100642.34
2019-06-07T09:40:57.500Z,100643.63
2019-06-07T09:44:00.745Z,100643.80
2019-06-07T09:46:04.651Z,100648.56
2019-06-07T09:49:12.328Z,100649.28
2019-06-07T09:51:17.157Z,100641.38
2019-06-07T09:53:37.198Z,100640.74
2019-06-07T09:56:11.726Z,100640.59
2019-06-07T09:58:55.497Z,100639.41
2019-06-07T10:01:13.666Z,100639.66
2019-06-07T10:03:44.519Z,100639.20
2019-06-07T10:06:15.017Z,100644.81
2019-06-07T10:11:17.569Z,100635.34
2019-06-07T10:13:47.994Z,100640.00
2019-06-07T10:16:18.381Z,100634.67
2019-06-07T10:18:48.867Z,100634.31
2019-06-07T10:21:19.420Z,100624.00
2019-06-07T10:23:49.827Z,100630.48
2019-06-07T10:26:20.232Z,100632.94
2019-06-07T10:28:53.438Z,100634.13
2019-06-07T10:31:22.763Z,100634.45
2019-06-07T10:33:54.122Z,100631.20
2019-06-07T10:36:24.757Z,100630.03
2019-06-07T10:38:55.126Z,100626.65
2019-06-07T10:41:25.536Z,100627.42
2019-06-07T10:43:55.983Z,100624.42
2019-06-07T10:46:26.471Z,100620.91
2019-06-07T10:48:56.923Z,100621.83
2019-06-07T10:51:27.478Z,100611.66
2019-06-07T10:53:57.914Z,100609.06
2019-06-07T10:56:28.397Z,100602.42
2019-06-07T10:58:58.826Z,100598.61
2019-06-07T11:01:29.313Z,100608.38
2019-06-07T11:03:59.731Z,100610.64
2019-06-07T11:06:30.405Z,100605.48
2019-06-07T11:09:00.757Z,100607.61
2019-06-07T11:11:31.204Z,100605.05
2019-06-07T11:14:01.563Z,100596.31
2019-06-07T11:16:31.968Z,100602.09
2019-06-07T11:19:02.387Z,100600.17
2019-06-07T11:21:32.854Z,100591.42
2019-06-07T11:24:03.317Z,100587.97
2019-06-07T11:26:33.774Z,100584.73
2019-06-07T11:29:06.669Z,100577.03
2019-06-07T11:31:37.270Z,100574.45
2019-06-07T11:34:08.362Z,100573.40
2019-06-07T11:36:38.923Z,100582.81
2019-06-07T11:39:11.091Z,100581.36
2019-06-07T11:41:42.012Z,100575.72
2019-06-07T11:44:12.970Z,100571.37
2019-06-07T11:46:43.751Z,100571.62
2019-06-07T11:49:19.831Z,100575.07
2019-06-07T11:51:46.352Z,100574.42
2019-06-07T11:54:20.305Z,100577.31
2019-06-07T11:56:49.034Z,100575.15
2019-06-07T11:59:19.635Z,100577.08
2019-06-07T12:01:50.114Z,100575.73
2019-06-07T12:04:32.493Z,100571.75
2019-06-07T12:06:52.601Z,100563.47
2019-06-07T12:09:23.035Z,100564.20
2019-06-07T12:11:53.466Z,100563.27
2019-06-07T12:14:23.885Z,100565.87
2019-06-07T12:16:54.258Z,100554.74
2019-06-07T12:19:24.646Z,100554.28
2019-06-07T12:21:55.063Z,100547.77
2019-06-07T12:24:25.485Z,100549.67
2019-06-07T12:26:56.004Z,100552.48
2019-06-07T12:29:26.338Z,100555.14
2019-06-07T12:31:56.819Z,100547.05
2019-06-07T12:34:27.870Z,100540.33
2019-06-07T12:36:58.283Z,100547.05
2019-06-07T12:39:28.723Z,100540.52
2019-06-07T12:41:59.142Z,100533.67
2019-06-07T12:44:29.605Z,100532.13
2019-06-07T12:46:59.952Z,100528.00
2019-06-07T12:49:30.575Z,100524.58
2019-06-07T12:52:01.082Z,100532.12
2019-06-07T12:54:31.453Z,100529.02
2019-06-07T12:57:01.873Z,100530.66
2019-06-07T12:59:32.275Z,100527.58
2019-06-07T13:02:02.796Z,100524.09
2019-06-07T13:04:33.334Z,100523.30
2019-06-07T13:07:03.861Z,100529.27
2019-06-07T13:09:36.124Z,100516.55
2019-06-07T13:12:06.425Z,100517.59
2019-06-07T13:14:36.811Z,100518.22
2019-06-07T13:17:07.414Z,100522.09
2019-06-07T13:19:37.910Z,100515.87
2019-06-07T13:22:08.449Z,100516.22
2019-06-07T13:24:38.919Z,100514.55
2019-06-07T13:27:09.913Z,100512.75
2019-06-07T13:29:40.426Z,100513.09
2019-06-07T13:32:10.825Z,100514.97
2019-06-07T13:34:41.313Z,100516.59
2019-06-07T13:37:11.719Z,100517.48
2019-06-07T13:39:42.090Z,100513.59
2019-06-07T13:42:12.630Z,100517.71
2019-06-07T13:44:43.130Z,100516.59
2019-06-07T13:47:13.515Z,100500.55
2019-06-07T13:49:44.025Z,100510.93
2019-06-07T13:52:14.582Z,100507.60
2019-06-07T13:54:45.009Z,100510.16
2019-06-07T13:57:15.967Z,100513.08
2019-06-07T13:59:46.487Z,100511.28
2019-06-07T14:02:18.417Z,100512.03
2019-06-07T14:04:49.066Z,100508.91
2019-06-07T14:07:21.183Z,100513.73
2019-06-07T14:09:51.764Z,100505.25
2019-06-07T14:12:24.031Z,100507.86
2019-06-07T14:14:54.703Z,100505.32
2019-06-07T14:17:25.372Z,100504.51
2019-06-07T14:19:55.852Z,100511.34
2019-06-07T14:22:26.883Z,100512.08
2019-06-07T14:24:57.345Z,100508.41
2019-06-07T14:27:27.848Z,100501.97
2019-06-07T14:29:58.303Z,100503.65
2019-06-07T14:32:28.825Z,100512.22
2019-06-07T14:34:59.301Z,100512.73
2019-06-07T14:37:30.977Z,100520.01
2019-06-07T14:40:01.578Z,100516.47
2019-06-07T14:42:33.355Z,100515.17
2019-06-07T14:45:06.350Z,100515.27
2019-06-07T14:47:37.010Z,100511.05
2019-06-07T14:50:09.592Z,100504.50
2019-06-07T14:52:40.020Z,100507.75
2019-06-07T14:55:10.398Z,100501.69
2019-06-07T14:57:40.817Z,100508.81
2019-06-07T15:00:13.510Z,100518.06
2019-06-07T15:02:44.015Z,100516.27
2019-06-07T15:05:15.169Z,100517.52
2019-06-07T15:07:45.954Z,100515.78
2019-06-07T15:10:16.470Z,100512.28
2019-06-07T15:12:47.001Z,100519.39
2019-06-07T15:15:17.408Z,100512.43
2019-06-07T15:17:47.909Z,100518.26
2019-06-07T15:20:18.279Z,100517.61
2019-06-07T15:22:48.678Z,100522.89
2019-06-07T15:25:20.079Z,100525.14
2019-06-07T15:27:50.569Z,100523.84
2019-06-07T15:30:21.211Z,100531.60
2019-06-07T15:32:51.651Z,100538.66
2019-06-07T15:35:22.076Z,100537.38
2019-06-07T15:37:52.597Z,100534.22
2019-06-07T15:40:23.225Z,100526.53
2019-06-07T15:42:53.617Z,100525.98
2019-06-07T15:45:23.968Z,100526.62
2019-06-07T15:47:54.933Z,100528.22
2019-06-07T15:50:28.624Z,100527.64
2019-06-07T15:52:57.468Z,100527.34
2019-06-07T15:55:27.927Z,100528.10
2019-06-07T15:57:58.393Z,100535.05
2019-06-07T16:00:28.791Z,100533.75
2019-06-07T16:02:59.276Z,100534.84
2019-06-07T16:05:31.938Z,100535.54
2019-06-07T16:08:02.392Z,100530.40
2019-06-07T16:10:32.763Z,100531.95
2019-06-07T16:13:03.402Z,100535.75
2019-06-07T16:15:34.740Z,100534.89
2019-06-07T16:18:05.876Z,100546.22
2019-06-07T16:20:37.358Z,100542.10
2019-06-07T16:23:07.908Z,100549.98
2019-06-07T16:25:38.364Z,100554.55
2019-06-07T16:28:08.759Z,100557.77
2019-06-07T16:30:40.507Z,100559.84
2019-06-07T16:33:11.071Z,100559.78
2019-06-07T16:35:41.523Z,100564.51
2019-06-07T16:38:12.057Z,100566.23
2019-06-07T16:40:42.590Z,100573.75
2019-06-07T16:43:17.779Z,100574.20
2019-06-07T16:45:45.073Z,100580.52
2019-06-07T16:48:15.532Z,100581.58
2019-06-07T16:50:45.907Z,100580.02
2019-06-07T16:53:16.890Z,100575.89
2019-06-07T16:55:47.343Z,100576.42
2019-06-07T16:58:17.843Z,100576.63
2019-06-07T17:00:49.566Z,100568.50
2019-06-07T17:03:19.954Z,100572.39
2019-06-07T17:05:50.706Z,100578.06
2019-06-07T17:08:21.170Z,100576.96
2019-06-07T17:10:51.610Z,100569.94
2019-06-07T17:13:32.848Z,100568.54
2019-06-07T17:15:54.156Z,100564.98
2019-06-07T17:18:24.678Z,100562.48
2019-06-07T17:20:55.073Z,100565.14
2019-06-07T17:23:25.477Z,100559.63
2019-06-07T17:25:55.938Z,100564.20
2019-06-07T17:28:26.320Z,100566.09
2019-06-07T17:30:56.818Z,100563.99
2019-06-07T17:33:28.396Z,100571.90
2019-06-07T17:35:58.814Z,100573.45
2019-06-07T17:38:29.472Z,100566.11
2019-06-07T17:41:00.130Z,100579.53
2019-06-07T17:43:30.914Z,100582.22
2019-06-07T17:46:01.784Z,100581.80
2019-06-07T17:48:32.529Z,100585.34
2019-06-07T17:51:02.905Z,100587.52
2019-06-07T17:53:33.374Z,100586.97
2019-06-07T17:56:03.760Z,100592.01
2019-06-07T17:58:34.188Z,100601.62
2019-06-07T18:01:04.629Z,100596.37
2019-06-07T18:03:35.091Z,100597.42
2019-06-07T18:06:05.661Z,100605.17
2019-06-07T18:08:36.086Z,100609.70
2019-06-07T18:11:06.548Z,100608.44
2019-06-07T18:13:36.968Z,100606.22
2019-06-07T18:16:07.556Z,100603.25
2019-06-07T18:18:38.252Z,100606.35
2019-06-07T18:21:08.702Z,100609.58
2019-06-07T18:23:39.190Z,100612.07
2019-06-07T18:26:09.887Z,100611.24
2019-06-07T18:28:40.580Z,100603.89
2019-06-07T18:31:11.009Z,100607.15
2019-06-07T18:33:41.435Z,100600.33
2019-06-07T18:36:11.935Z,100606.62
2019-06-07T18:38:42.379Z,100606.78
2019-06-07T18:41:12.787Z,100607.22
2019-06-07T18:43:43.192Z,100607.27
2019-06-07T18:46:13.665Z,100609.59
2019-06-07T18:48:44.067Z,100604.70
2019-06-07T18:51:14.639Z,100605.30
2019-06-07T18:53:45.196Z,100612.67
2019-06-07T18:56:16.108Z,100608.64
2019-06-07T18:58:47.133Z,100611.21
2019-06-07T19:01:17.650Z,100609.70
2019-06-07T19:03:49.116Z,100618.22
2019-06-07T19:06:20.287Z,100619.17
2019-06-07T19:08:54.770Z,100627.34
2019-06-07T19:11:22.990Z,100625.73
2019-06-07T19:13:53.406Z,100624.95
2019-06-07T19:16:24.361Z,100630.28
2019-06-07T19:18:55.870Z,100629.89
2019-06-07T19:21:26.424Z,100635.42
2019-06-07T19:23:58.048Z,100629.17
2019-06-07T19:26:28.638Z,100637.30
2019-06-07T19:28:59.094Z,100639.22
2019-06-07T19:31:29.510Z,100636.66
2019-06-07T19:34:01.271Z,100641.64
2019-06-07T19:36:31.902Z,100642.08
2019-06-07T19:39:02.404Z,100644.69
2019-06-07T19:41:32.857Z,100651.05
2019-06-07T19:44:03.316Z,100648.11
2019-06-07T19:46:33.688Z,100647.02
2019-06-07T19:49:04.270Z,100652.34
2019-06-07T19:51:34.693Z,100652.97
2019-06-07T19:54:05.201Z,100651.50
2019-06-07T19:56:35.663Z,100644.94
2019-06-07T19:59:06.095Z,100643.58
2019-06-07T20:01:36.621Z,100643.98
2019-06-07T20:04:07.133Z,100649.16
2019-06-07T20:06:37.520Z,100648.69
2019-06-07T20:09:08.392Z,100649.80
2019-06-07T20:11:38.868Z,100648.92
2019-06-07T20:14:09.363Z,100653.61
2019-06-07T20:16:39.870Z,100654.95
2019-06-07T20:19:10.330Z,100649.98
2019-06-07T20:21:40.822Z,100646.67
2019-06-07T20:24:24.808Z,100657.87
2019-06-07T20:26:43.475Z,100654.17
2019-06-07T20:29:25.338Z,100654.63
2019-06-07T20:31:46.197Z,100660.06
2019-06-07T20:34:16.625Z,100660.20
2019-06-07T20:36:47.133Z,100652.42
2019-06-07T20:39:18.147Z,100651.94
2019-06-07T20:41:48.600Z,100649.45
2019-06-07T20:44:19.285Z,100649.95
2019-06-07T20:46:49.754Z,100645.16
2019-06-07T20:49:20.164Z,100651.31
2019-06-07T20:51:50.520Z,100647.11
2019-06-07T20:54:20.964Z,100654.24
2019-06-07T20:56:51.351Z,100656.24
2019-06-07T20:59:22.553Z,100658.64
2019-06-07T21:01:52.938Z,100657.55
2019-06-07T21:04:23.427Z,100660.98
2019-06-07T21:06:53.890Z,100658.27
2019-06-07T21:09:24.302Z,100659.53
2019-06-07T21:11:55.169Z,100662.28
2019-06-07T21:14:25.773Z,100658.22
2019-06-07T21:16:56.168Z,100656.23
2019-06-07T21:19:26.680Z,100657.83
2019-06-07T21:21:57.154Z,100658.52
2019-06-07T21:24:27.636Z,100657.49
2019-06-07T21:26:58.021Z,100656.33
2019-06-07T21:29:28.521Z,100664.26
2019-06-07T21:31:58.897Z,100668.70
2019-06-07T21:34:29.389Z,100667.76
2019-06-07T21:37:01.685Z,100668.36
2019-06-07T21:39:32.476Z,100667.79
2019-06-07T21:42:04.222Z,100675.52
2019-06-07T21:44:34.723Z,100668.56
2019-06-07T21:47:06.377Z,100677.42
2019-06-07T21:49:36.954Z,100673.97
2019-06-07T21:52:08.674Z,100674.87
2019-06-07T21:54:39.207Z,100678.84
2019-06-07T21:57:09.624Z,100683.51
2019-06-07T21:59:40.118Z,100680.96
2019-06-07T22:02:11.629Z,100677.30
2019-06-07T22:04:42.068Z,100673.23
2019-06-07T22:07:13.591Z,100669.47
2019-06-07T22:09:44.189Z,100676.52
2019-06-07T22:12:14.633Z,100679.88
2019-06-07T22:14:45.140Z,100670.98
2019-06-07T22:17:15.531Z,100670.18
2019-06-07T22:19:45.970Z,100668.99
2019-06-07T22:22:16.342Z,100668.61
2019-06-07T22:24:46.770Z,100676.20
2019-06-07T22:27:17.729Z,100674.05
2019-06-07T22:29:48.244Z,100679.92
2019-06-07T22:32:19.169Z,100675.19
2019-06-07T22:34:49.605Z,100679.48
2019-06-07T22:37:23.400Z,100674.44
2019-06-07T22:39:52.346Z,100680.47
2019-06-07T22:42:22.755Z,100669.66
2019-06-07T22:44:53.903Z,100668.52
2019-06-07T22:47:24.541Z,100670.83
2019-06-07T22:49:56.228Z,100659.28
2019-06-07T22:52:26.679Z,100663.34
2019-06-07T22:54:57.120Z,100662.25
2019-06-07T22:57:29.272Z,100658.66
2019-06-07T22:59:59.783Z,100655.83
2019-06-07T23:02:30.234Z,100662.20
2019-06-07T23:05:04.618Z,100653.83
2019-06-07T23:07:32.904Z,100659.28
2019-06-07T23:10:04.765Z,100651.71
2019-06-07T23:12:35.203Z,100653.98
2019-06-07T23:15:09.308Z,100660.08
2019-06-07T23:17:39.838Z,100662.72
2019-06-07T23:20:11.719Z,100670.91
2019-06-07T23:22:42.340Z,100669.94
2019-06-07T23:25:15.040Z,100670.52
2019-06-07T23:27:44.966Z,100671.48
2019-06-07T23:30:16.562Z,100668.94
2019-06-07T23:32:47.244Z,100669.69
2019-06-07T23:35:18.969Z,100672.30
2019-06-07T23:37:49.577Z,100674.85
2019-06-07T23:40:21.559Z,100672.09
2019-06-07T23:42:52.159Z,100673.73
2019-06-07T23:45:22.806Z,100670.55
2019-06-07T23:47:53.218Z,100673.44
2019-06-07T23:50:23.612Z,100668.81
2019-06-07T23:52:54.080Z,100671.88
2019-06-07T23:55:24.569Z,100670.63
2019-06-07T23:57:55.038Z,100671.70
